Time;durP1;ratioP1;P1;durP2;ratioP2;P2;SDS_P1;SDS_P2;PMS_P1;PMS_P2;Temp;Humidity;BMP_temperature;BMP_pressure;BME280_temperature;BME280_humidity;BME280_pressure;Samples;Min_cycle;Max_cycle;Signal;HPM_P1;HPM_P2
2023/05/01 00:01:18;;;;;;;6.65;4.22;;;9.60;99.90;;;;;;5109582;28;20053;-78
2023/05/01 00:03:44;;;;;;;5.85;3.33;;;9.50;99.90;;;;;;5108742;28;20115;-80
2023/05/01 00:06:10;;;;;;;5.97;3.63;;;9.50;99.90;;;;;;5082136;28;20051;-79
2023/05/01 00:08:35;;;;;;;5.47;3.42;;;9.50;99.90;;;;;;5093626;28;20448;-79
2023/05/01 00:11:08;;;;;;;5.75;3.58;;;9.50;99.90;;;;;;5065363;28;20572;-79
2023/05/01 00:13:34;;;;;;;5.78;3.40;;;9.40;99.90;;;;;;5106853;28;20054;-80
2023/05/01 00:16:00;;;;;;;7.72;3.80;;;9.40;99.90;;;;;;5102154;28;20043;-79
2023/05/01 00:18:25;;;;;;;5.57;3.72;;;9.40;99.90;;;;;;5102508;28;20071;-79
2023/05/01 00:20:51;;;;;;;5.22;3.42;;;9.40;99.90;;;;;;5102228;28;20036;-78
2023/05/01 00:23:16;;;;;;;7.65;4.22;;;9.40;99.90;;;;;;5078396;28;20033;-79
2023/05/01 00:25:42;;;;;;;6.85;3.88;;;9.40;99.90;;;;;;5094278;28;20510;-80
2023/05/01 00:28:08;;;;;;;9.45;3.75;;;9.30;99.90;;;;;;5077167;28;20118;-79
2023/05/01 00:30:33;;;;;;;6.32;3.72;;;9.30;99.90;;;;;;5092090;28;20518;-79
2023/05/01 00:33:00;;;;;;;5.65;3.63;;;9.30;99.90;;;;;;5093114;28;20119;-78
2023/05/01 00:35:26;;;;;;;6.85;3.25;;;9.30;99.90;;;;;;5093359;28;20055;-79
2023/05/01 00:37:51;;;;;;;9.20;3.95;;;9.30;99.90;;;;;;5092499;28;20036;-80
2023/05/01 00:40:17;;;;;;;6.50;3.75;;;9.20;99.90;;;;;;5092874;28;20387;-79
2023/05/01 00:42:43;;;;;;;6.22;3.70;;;9.30;99.90;;;;;;5092887;28;20438;-80
2023/05/01 00:45:09;;;;;;;8.40;3.90;;;9.20;99.90;;;;;;5093344;28;20433;-79
2023/05/01 00:47:35;;;;;;;6.50;3.40;;;9.20;99.90;;;;;;5093798;28;20043;-80
2023/05/01 00:50:01;;;;;;;10.43;3.60;;;9.20;99.90;;;;;;5091826;28;20040;-80
2023/05/01 00:52:27;;;;;;;6.90;3.72;;;9.20;99.90;;;;;;5092217;28;20043;-79
2023/05/01 00:54:53;;;;;;;6.18;3.78;;;9.20;99.90;;;;;;5092592;28;20492;-79
2023/05/01 00:57:20;;;;;;;8.80;3.65;;;9.20;99.90;;;;;;5086733;28;20039;-79
2023/05/01 00:59:46;;;;;;;7.25;3.40;;;9.10;99.90;;;;;;5082739;28;20395;-79
2023/05/01 01:02:12;;;;;;;5.93;3.78;;;9.10;99.90;;;;;;5093383;28;20036;-79
2023/05/01 01:04:41;;;;;;;6.38;3.88;;;9.10;99.90;;;;;;5096404;28;20032;-79
2023/05/01 01:07:43;;;;;;;8.40;3.63;;;9.10;99.90;;;;;;5095623;28;20040;-79
2023/05/01 01:10:26;;;;;;;6.13;3.65;;;9.10;99.90;;;;;;5095433;28;20525;-79
2023/05/01 01:12:52;;;;;;;7.88;3.63;;;9.10;99.90;;;;;;5096049;28;20032;-79
2023/05/01 01:15:32;;;;;;;6.55;3.72;;;9.00;99.90;;;;;;5095271;28;20044;-79
2023/05/01 01:18:04;;;;;;;5.45;3.90;;;9.00;99.90;;;;;;5094642;28;20036;-79
2023/05/01 01:20:45;;;;;;;5.00;3.55;;;9.00;99.90;;;;;;5095228;28;20551;-79
2023/05/01 01:23:38;;;;;;;6.60;3.22;;;8.90;99.90;;;;;;5095212;28;20093;-79
2023/05/01 01:26:22;;;;;;;6.60;3.63;;;8.90;99.90;;;;;;5095364;28;20040;-79
2023/05/01 01:29:19;;;;;;;5.45;3.50;;;8.80;99.90;;;;;;5095204;28;20065;-79
2023/05/01 01:31:56;;;;;;;5.22;3.42;;;8.80;99.90;;;;;;5094948;28;20103;-79
2023/05/01 01:34:32;;;;;;;4.65;3.35;;;8.70;99.90;;;;;;5094583;28;20121;-79
2023/05/01 01:37:18;;;;;;;5.78;3.50;;;8.70;99.90;;;;;;5077683;28;20028;-78
2023/05/01 01:39:51;;;;;;;7.32;3.83;;;8.70;99.90;;;;;;5093881;28;20043;-78
2023/05/01 01:42:25;;;;;;;6.00;3.80;;;8.60;99.90;;;;;;5093562;28;20036;-78
2023/05/01 01:44:54;;;;;;;5.78;3.78;;;8.60;99.90;;;;;;5076532;28;20082;-78
2023/05/01 01:47:27;;;;;;;6.32;3.58;;;8.60;99.90;;;;;;5093663;28;20380;-77
2023/05/01 01:49:55;;;;;;;5.47;3.70;;;8.60;99.90;;;;;;5093244;28;20048;-78
2023/05/01 01:52:22;;;;;;;7.07;3.58;;;8.50;99.90;;;;;;5092692;28;20499;-78
2023/05/01 01:54:57;;;;;;;5.45;3.75;;;8.50;99.90;;;;;;5092823;28;20044;-78
2023/05/01 01:57:24;;;;;;;7.03;4.13;;;8.50;99.90;;;;;;5107109;28;20039;-78
2023/05/01 01:59:50;;;;;;;7.10;4.30;;;8.50;99.90;;;;;;5093082;28;20676;-77
2023/05/01 02:02:21;;;;;;;5.38;3.72;;;8.40;99.90;;;;;;5092633;28;20381;-78
2023/05/01 02:04:51;;;;;;;6.10;4.25;;;8.40;99.90;;;;;;5092128;28;20098;-78
2023/05/01 02:07:19;;;;;;;7.13;4.45;;;8.40;99.90;;;;;;5092023;28;20036;-78
2023/05/01 02:09:45;;;;;;;7.30;4.15;;;8.40;99.90;;;;;;5092575;28;20120;-78
2023/05/01 02:12:13;;;;;;;6.43;3.78;;;8.40;99.90;;;;;;5092568;28;20048;-77
2023/05/01 02:14:41;;;;;;;4.78;3.70;;;8.40;99.90;;;;;;5092345;28;20044;-78
2023/05/01 02:17:08;;;;;;;6.75;4.60;;;8.30;99.90;;;;;;5092272;28;20047;-77
2023/05/01 02:19:39;;;;;;;6.68;4.78;;;8.40;99.90;;;;;;5092025;28;20152;-78
2023/05/01 02:22:06;;;;;;;6.15;3.83;;;8.30;99.90;;;;;;5063743;28;20063;-78
2023/05/01 02:24:33;;;;;;;5.68;3.83;;;8.30;99.90;;;;;;5089138;28;20028;-78
2023/05/01 02:27:38;;;;;;;5.45;3.67;;;8.30;99.90;;;;;;5092197;28;20472;-78
2023/05/01 02:30:04;;;;;;;;;;;8.50;99.90;;;;;;5108265;28;20051;-78
2023/05/01 02:32:30;;;;;;;6.32;4.05;;;8.30;99.90;;;;;;5091444;28;19916;-78
2023/05/01 02:34:56;;;;;;;6.78;4.38;;;8.20;99.90;;;;;;5091276;28;20055;-78
2023/05/01 02:37:22;;;;;;;8.18;4.10;;;8.20;99.90;;;;;;5091330;28;20040;-78
2023/05/01 02:39:48;;;;;;;8.68;4.28;;;8.20;99.90;;;;;;5056804;28;20033;-78
2023/05/01 02:42:16;;;;;;;6.72;4.25;;;8.20;99.90;;;;;;5080482;28;20036;-78
2023/05/01 02:44:47;;;;;;;5.90;3.92;;;8.10;99.90;;;;;;5091168;28;20059;-78
2023/05/01 02:47:16;;;;;;;7.18;4.53;;;8.20;99.90;;;;;;5091197;28;20065;-78
2023/05/01 02:49:43;;;;;;;7.68;4.10;;;8.10;99.90;;;;;;5091226;28;20395;-77
2023/05/01 02:52:11;;;;;;;7.88;4.20;;;8.10;99.90;;;;;;5067211;28;20483;-78
2023/05/01 02:54:37;;;;;;;7.50;4.30;;;8.10;99.90;;;;;;5084218;28;20398;-78
2023/05/01 02:57:04;;;;;;;5.90;4.05;;;8.00;99.90;;;;;;5104969;28;20040;-78
2023/05/01 02:59:30;;;;;;;7.93;4.43;;;8.00;99.90;;;;;;5091962;28;20036;-78
2023/05/01 03:01:56;;;;;;;7.85;4.28;;;8.00;99.90;;;;;;5091005;28;20039;-77
2023/05/01 03:04:22;;;;;;;8.90;4.47;;;7.90;99.90;;;;;;5053923;28;20500;-78
2023/05/01 03:06:47;;;;;;;7.55;4.60;;;7.90;99.90;;;;;;5082325;28;20039;-77
2023/05/01 03:09:13;;;;;;;9.15;4.68;;;7.90;99.90;;;;;;5090299;28;20119;-78
2023/05/01 03:11:39;;;;;;;7.35;4.88;;;7.90;99.90;;;;;;5090647;28;20119;-78
2023/05/01 03:14:04;;;;;;;6.60;4.25;;;7.80;99.90;;;;;;5090406;28;20040;-77
2023/05/01 03:16:30;;;;;;;7.32;4.10;;;7.80;99.90;;;;;;5090294;28;20036;-78
2023/05/01 03:18:55;;;;;;;8.73;4.30;;;7.70;99.90;;;;;;5090224;28;20044;-77
2023/05/01 03:21:21;;;;;;;8.32;4.68;;;7.70;99.90;;;;;;5090319;28;20096;-77
2023/05/01 03:23:47;;;;;;;7.13;4.43;;;7.60;99.90;;;;;;5061878;28;20036;-77
2023/05/01 03:26:12;;;;;;;7.47;4.40;;;7.90;99.90;;;;;;5087637;28;20036;-77
2023/05/01 03:28:38;;;;;;;8.82;4.78;;;7.50;99.90;;;;;;5090112;28;20044;-77
2023/05/01 03:31:03;;;;;;;9.10;4.32;;;7.40;99.90;;;;;;5090451;28;20384;-77
2023/05/01 03:33:30;;;;;;;6.45;4.50;;;7.40;99.90;;;;;;5090439;28;20059;-77
2023/05/01 03:36:00;;;;;;;9.95;4.50;;;7.30;99.90;;;;;;5090177;28;20047;-77
2023/05/01 03:38:27;;;;;;;10.57;5.05;;;7.30;99.90;;;;;;5089880;28;20082;-77
2023/05/01 03:40:52;;;;;;;6.70;4.50;;;7.30;99.90;;;;;;5090151;28;20059;-77
2023/05/01 03:43:18;;;;;;;7.00;4.70;;;7.20;99.90;;;;;;5090195;28;20048;-77
2023/05/01 03:45:43;;;;;;;7.82;4.35;;;7.20;99.90;;;;;;5089932;28;20050;-77
2023/05/01 03:48:08;;;;;;;7.82;4.60;;;7.20;99.90;;;;;;5089912;28;20040;-77
2023/05/01 03:50:34;;;;;;;8.55;4.47;;;7.10;99.90;;;;;;5090015;28;20040;-77
2023/05/01 03:52:59;;;;;;;8.27;4.53;;;7.10;99.90;;;;;;5090038;28;20051;-76
2023/05/01 03:55:25;;;;;;;5.57;4.07;;;7.10;99.90;;;;;;5092041;28;20040;-77
2023/05/01 03:57:51;;;;;;;7.78;4.90;;;7.10;99.90;;;;;;5102238;28;20032;-77
2023/05/01 04:00:17;;;;;;;7.93;4.10;;;7.00;99.90;;;;;;5089579;28;20070;-77
2023/05/01 04:02:42;;;;;;;6.72;4.45;;;7.00;99.90;;;;;;5089805;28;20040;-77
2023/05/01 04:05:08;;;;;;;8.90;4.63;;;7.00;99.90;;;;;;5060905;28;20479;-77
2023/05/01 04:07:34;;;;;;;5.57;4.10;;;6.90;99.90;;;;;;5083666;28;20127;-77
2023/05/01 04:09:59;;;;;;;6.63;4.20;;;7.00;99.90;;;;;;5052950;28;20053;-77
2023/05/01 04:12:25;;;;;;;6.65;4.38;;;6.90;99.90;;;;;;5085704;28;20112;-77
2023/05/01 04:14:50;;;;;;;7.43;4.63;;;6.90;99.90;;;;;;5089872;28;20419;-77
2023/05/01 04:17:16;;;;;;;8.30;4.30;;;6.90;99.90;;;;;;5089624;28;20043;-77
2023/05/01 04:19:41;;;;;;;6.35;4.35;;;6.90;99.90;;;;;;5089554;28;20036;-77
2023/05/01 04:22:07;;;;;;;8.18;4.43;;;6.90;99.90;;;;;;5090033;28;20044;-77
2023/05/01 04:24:33;;;;;;;7.25;4.47;;;6.80;99.90;;;;;;5054784;28;20033;-77
2023/05/01 04:26:58;;;;;;;7.68;3.95;;;6.80;99.90;;;;;;5069579;28;20072;-77
2023/05/01 04:29:24;;;;;;;7.70;4.50;;;6.90;99.90;;;;;;5085297;28;20036;-77
2023/05/01 04:31:49;;;;;;;6.57;4.65;;;6.90;99.90;;;;;;5089842;28;20036;-77
2023/05/01 04:34:15;;;;;;;8.98;4.85;;;6.90;99.90;;;;;;5089599;28;20036;-77
2023/05/01 04:36:40;;;;;;;6.75;4.40;;;6.90;99.90;;;;;;5090783;28;20495;-77
2023/05/01 04:39:06;;;;;;;6.45;4.57;;;7.00;99.90;;;;;;5093509;28;20085;-77
2023/05/01 04:41:32;;;;;;;6.95;4.35;;;6.90;99.90;;;;;;5093330;28;20407;-77
2023/05/01 04:43:57;;;;;;;6.80;4.35;;;7.00;99.90;;;;;;5094737;28;20403;-77
2023/05/01 04:46:23;;;;;;;10.70;4.63;;;7.00;99.90;;;;;;5093122;28;20116;-77
2023/05/01 04:48:48;;;;;;;7.85;4.43;;;7.10;99.90;;;;;;5093157;28;20090;-77
2023/05/01 04:51:14;;;;;;;8.18;5.15;;;7.10;99.90;;;;;;5062674;28;20125;-77
2023/05/01 04:53:40;;;;;;;6.97;4.28;;;7.10;99.90;;;;;;5072785;28;20496;-77
2023/05/01 04:56:05;;;;;;;7.60;4.32;;;7.20;99.90;;;;;;5092142;28;20040;-77
2023/05/01 04:58:31;;;;;;;7.25;4.68;;;7.30;99.90;;;;;;5099715;28;20036;-77
2023/05/01 05:00:56;;;;;;;6.53;4.80;;;7.30;99.90;;;;;;5093158;28;20036;-78
2023/05/01 05:03:22;;;;;;;9.02;5.22;;;7.50;99.90;;;;;;5093077;28;20044;-77
2023/05/01 05:05:47;;;;;;;9.90;5.10;;;7.60;99.90;;;;;;5058678;28;20059;-76
2023/05/01 05:08:13;;;;;;;7.95;5.03;;;7.70;99.90;;;;;;5082164;28;20094;-77
2023/05/01 05:10:39;;;;;;;8.02;5.20;;;7.80;99.90;;;;;;5092789;28;20109;-76
2023/05/01 05:13:04;;;;;;;10.82;5.20;;;7.90;99.90;;;;;;5093189;28;20032;-77
2023/05/01 05:15:30;;;;;;;9.07;6.05;;;8.00;99.90;;;;;;5062481;28;20037;-78
2023/05/01 05:17:55;;;;;;;10.82;5.90;;;8.00;99.90;;;;;;5091393;28;20036;-77
2023/05/01 05:20:21;;;;;;;8.55;5.25;;;8.10;99.90;;;;;;5093064;28;20044;-77
2023/05/01 05:22:46;;;;;;;8.27;5.40;;;8.10;99.90;;;;;;5093956;28;20028;-77
2023/05/01 05:25:12;;;;;;;7.97;5.72;;;8.20;99.90;;;;;;5092564;28;20043;-77
2023/05/01 05:27:37;;;;;;;10.57;5.38;;;8.20;99.90;;;;;;5093792;28;20043;-78
2023/05/01 05:30:04;;;;;;;10.40;6.28;;;8.30;99.90;;;;;;5093587;28;20043;-78
2023/05/01 05:32:30;;;;;;;8.25;6.28;;;8.30;99.90;;;;;;5092861;28;20040;-78
2023/05/01 05:34:56;;;;;;;8.80;5.88;;;8.40;99.90;;;;;;5093635;28;20040;-78
2023/05/01 05:37:23;;;;;;;9.85;6.03;;;8.40;99.90;;;;;;5092768;28;20036;-78
2023/05/01 05:39:48;;;;;;;8.32;5.75;;;8.50;99.90;;;;;;5092733;28;20085;-78
2023/05/01 05:42:14;;;;;;;13.88;6.13;;;8.50;99.90;;;;;;5093234;28;20032;-77
2023/05/01 05:44:40;;;;;;;10.13;6.75;;;8.50;99.90;;;;;;5093293;28;20448;-78
2023/05/01 05:47:05;;;;;;;10.02;6.50;;;8.60;99.90;;;;;;5092769;28;20040;-78
2023/05/01 05:49:31;;;;;;;10.13;6.30;;;8.40;99.90;;;;;;5093140;28;20075;-78
2023/05/01 05:51:57;;;;;;;9.25;6.63;;;8.60;99.90;;;;;;5092948;28;20423;-77
2023/05/01 05:54:22;;;;;;;12.20;6.50;;;8.60;99.90;;;;;;5093045;28;20392;-78
2023/05/01 05:56:48;;;;;;;11.70;6.38;;;8.60;99.90;;;;;;5106792;28;20035;-78
2023/05/01 05:59:13;;;;;;;11.30;6.57;;;8.70;99.90;;;;;;5093762;28;20496;-78
2023/05/01 06:01:39;;;;;;;7.95;6.30;;;8.80;99.90;;;;;;5065569;28;20547;-79
2023/05/01 06:04:05;;;;;;;9.77;6.70;;;8.80;99.90;;;;;;5075886;28;20071;-79
2023/05/01 06:06:32;;;;;;;11.55;7.25;;;8.90;99.90;;;;;;5093616;28;20040;-79
2023/05/01 06:08:57;;;;;;;12.48;6.47;;;9.00;99.90;;;;;;5093750;28;20047;-79
2023/05/01 06:11:23;;;;;;;12.10;6.90;;;9.10;99.90;;;;;;5094617;28;20039;-78
2023/05/01 06:13:48;;;;;;;8.85;6.13;;;9.20;99.90;;;;;;5094858;28;20047;-78
2023/05/01 06:16:14;;;;;;;10.45;6.35;;;9.30;99.90;;;;;;5094851;28;20063;-79
2023/05/01 06:18:40;;;;;;;12.13;6.72;;;9.40;99.90;;;;;;5095172;28;20578;-79
2023/05/01 06:21:05;;;;;;;8.77;6.50;;;9.50;99.90;;;;;;5094890;28;20031;-80
2023/05/01 06:23:32;;;;;;;11.75;6.65;;;9.60;99.90;;;;;;5095948;28;20503;-79
2023/05/01 06:25:58;;;;;;;12.48;6.15;;;9.60;99.90;;;;;;5095114;28;20511;-80
2023/05/01 06:28:24;;;;;;;10.15;6.38;;;9.70;99.90;;;;;;5095763;28;20047;-80
2023/05/01 06:30:50;;;;;;;9.73;6.50;;;9.80;99.90;;;;;;5095483;28;20064;-80
2023/05/01 06:33:15;;;;;;;8.13;6.22;;;9.90;99.90;;;;;;5095709;28;20035;-80
2023/05/01 06:35:41;;;;;;;9.75;6.25;;;9.90;99.90;;;;;;5095769;28;20067;-80
2023/05/01 06:38:06;;;;;;;10.88;6.90;;;10.00;99.90;;;;;;5095490;28;20508;-80
2023/05/01 06:40:33;;;;;;;10.85;6.68;;;10.00;99.90;;;;;;5070222;28;20108;-80
2023/05/01 06:43:00;;;;;;;10.05;6.20;;;10.10;99.90;;;;;;5092051;28;20055;-81
2023/05/01 06:45:26;;;;;;;11.50;6.43;;;10.20;99.90;;;;;;5098247;28;20089;-80
2023/05/01 06:47:51;;;;;;;10.15;6.05;;;10.30;99.90;;;;;;5097060;28;20048;-81
2023/05/01 06:50:17;;;;;;;13.85;7.10;;;10.50;99.90;;;;;;5095662;28;20043;-80
2023/05/01 06:52:43;;;;;;;9.70;5.95;;;10.60;99.90;;;;;;5096445;28;20032;-80
2023/05/01 06:55:08;;;;;;;9.88;5.97;;;10.80;99.90;;;;;;5096286;28;20036;-81
2023/05/01 06:57:34;;;;;;;10.85;6.15;;;10.80;99.90;;;;;;5109453;28;20044;-80
2023/05/01 06:59:59;;;;;;;8.60;5.70;;;10.90;99.90;;;;;;5095965;28;20120;-80
2023/05/01 07:02:25;;;;;;;9.90;5.85;;;11.00;99.90;;;;;;5095858;28;20036;-80
2023/05/01 07:04:52;;;;;;;8.95;5.45;;;11.10;99.90;;;;;;5096187;28;20044;-80
2023/05/01 07:07:17;;;;;;;8.75;5.88;;;11.20;99.90;;;;;;5096732;28;20050;-80
2023/05/01 07:09:43;;;;;;;8.77;5.35;;;11.20;99.90;;;;;;5095931;28;20111;-80
2023/05/01 07:12:09;;;;;;;8.35;5.47;;;11.30;99.90;;;;;;5095296;28;20243;-80
2023/05/01 07:14:34;;;;;;;9.10;5.50;;;11.30;99.90;;;;;;5097204;28;20040;-79
2023/05/01 07:17:01;;;;;;;9.07;5.90;;;11.40;99.90;;;;;;5095308;28;20068;-80
2023/05/01 07:19:26;;;;;;;8.98;5.65;;;11.40;99.90;;;;;;5061065;28;20134;-80
2023/05/01 07:21:52;;;;;;;8.18;5.00;;;11.60;99.90;;;;;;5084697;28;20035;-80
2023/05/01 07:24:18;;;;;;;10.77;6.20;;;11.70;99.90;;;;;;5081527;28;20063;-79
2023/05/01 07:26:43;;;;;;;11.90;5.45;;;11.90;99.90;;;;;;5095344;28;20113;-79
2023/05/01 07:29:09;;;;;;;7.93;4.97;;;12.10;99.90;;;;;;5064083;28;20036;-79
2023/05/01 07:31:36;;;;;;;7.38;5.15;;;12.30;99.90;;;;;;5096406;28;20046;-80
2023/05/01 07:34:02;;;;;;;10.15;5.47;;;12.50;99.90;;;;;;5094291;28;20089;-80
2023/05/01 07:36:28;;;;;;;14.00;5.80;;;12.70;99.90;;;;;;5095746;28;20408;-80
2023/05/01 07:38:54;;;;;;;9.60;5.03;;;12.90;99.90;;;;;;5094415;28;20044;-80
2023/05/01 07:41:21;;;;;;;11.38;5.82;;;13.00;99.90;;;;;;5094371;28;20032;-80
2023/05/01 07:43:47;;;;;;;11.10;5.85;;;13.20;99.90;;;;;;5094572;28;20063;-80
2023/05/01 07:46:12;;;;;;;8.40;5.13;;;13.40;99.90;;;;;;5095022;28;20518;-80
2023/05/01 07:48:38;;;;;;;9.25;4.78;;;13.60;99.90;;;;;;5095393;28;20058;-80
2023/05/01 07:51:03;;;;;;;8.13;4.72;;;13.80;99.90;;;;;;5094017;28;20495;-80
2023/05/01 07:53:29;;;;;;;11.00;5.15;;;13.90;99.90;;;;;;5093665;28;20040;-81
2023/05/01 07:56:05;;;;;;;8.90;4.70;;;14.00;99.90;;;;;;5100182;28;20035;-80
2023/05/01 07:58:31;;;;;;;7.25;4.30;;;14.10;99.90;;;;;;5101436;28;20036;-80
2023/05/01 08:00:56;;;;;;;9.70;5.15;;;14.20;99.90;;;;;;5093859;28;20074;-79
2023/05/01 08:03:22;;;;;;;7.38;5.03;;;14.30;99.90;;;;;;5095203;28;20067;-80
2023/05/01 08:05:47;;;;;;;10.90;4.65;;;14.20;99.90;;;;;;5094557;28;20040;-80
2023/05/01 08:08:19;;;;;;;7.13;4.03;;;14.30;99.90;;;;;;5095125;28;20040;-80
2023/05/01 08:10:44;;;;;;;7.75;4.50;;;14.30;99.90;;;;;;5095255;28;20044;-81
2023/05/01 08:13:10;;;;;;;7.05;4.03;;;14.30;99.90;;;;;;5099031;28;20036;-81
2023/05/01 08:15:37;;;;;;;8.15;5.13;;;14.30;99.90;;;;;;5098914;28;20137;-81
2023/05/01 08:18:03;;;;;;;8.80;4.82;;;14.30;99.90;;;;;;5098830;28;20130;-81
2023/05/01 08:20:29;;;;;;;8.20;4.57;;;14.30;99.90;;;;;;5099019;28;20050;-81
2023/05/01 08:22:55;;;;;;;9.32;4.72;;;14.40;99.90;;;;;;5068305;28;20032;-81
2023/05/01 08:25:21;;;;;;;6.75;4.38;;;14.60;99.90;;;;;;5099009;28;20044;-81
2023/05/01 08:27:48;;;;;;;9.57;4.07;;;14.70;99.90;;;;;;5082296;28;20122;-81
2023/05/01 08:30:13;;;;;;;7.53;4.07;;;14.90;99.90;;;;;;5099027;28;20094;-81
2023/05/01 08:32:39;;;;;;;6.47;3.90;;;15.10;99.90;;;;;;5099482;28;20040;-81
2023/05/01 08:35:05;;;;;;;11.20;4.38;;;15.20;99.90;;;;;;5100721;28;20047;-81
2023/05/01 08:37:31;;;;;;;9.88;4.13;;;15.40;99.90;;;;;;5069593;28;20492;-81
2023/05/01 08:39:56;;;;;;;8.55;4.10;;;15.60;99.90;;;;;;5096838;28;20073;-81
2023/05/01 08:42:22;;;;;;;8.60;3.75;;;15.70;99.90;;;;;;5098268;28;20040;-81
2023/05/01 08:44:49;;;;;;;7.35;3.55;;;15.80;99.90;;;;;;5098237;28;20536;-82
2023/05/01 08:47:17;;;;;;;7.10;4.10;;;15.90;99.90;;;;;;5098245;28;20035;-81
2023/05/01 08:49:44;;;;;;;6.32;3.83;;;16.10;99.90;;;;;;5098459;28;20533;-81
2023/05/01 08:52:13;;;;;;;7.30;3.35;;;16.20;99.90;;;;;;5098481;28;20039;-81
2023/05/01 08:54:42;;;;;;;7.68;3.92;;;16.20;99.90;;;;;;5097723;28;20111;-82
2023/05/01 08:57:10;;;;;;;6.82;3.97;;;16.20;99.90;;;;;;5112600;28;20414;-81
2023/05/01 08:59:36;;;;;;;6.93;3.50;;;16.20;99.90;;;;;;5097537;28;20040;-81
2023/05/01 09:02:04;;;;;;;5.80;3.90;;;16.30;99.90;;;;;;5098158;28;20380;-81
2023/05/01 09:04:36;;;;;;;7.10;3.88;;;16.50;99.90;;;;;;5097637;28;20032;-82
2023/05/01 09:07:02;;;;;;;8.82;4.07;;;16.60;99.90;;;;;;5097810;28;20032;-82
2023/05/01 09:09:29;;;;;;;6.07;3.30;;;16.70;99.90;;;;;;5098118;28;20032;-82
2023/05/01 09:12:24;;;;;;;7.72;3.47;;;16.50;99.90;;;;;;5115790;28;20048;-82
2023/05/01 09:14:52;;;;;;;10.20;3.33;;;16.20;99.90;;;;;;5086887;28;20052;-81
2023/05/01 09:17:19;;;;;;;5.88;3.03;;;16.10;99.90;;;;;;5084147;28;20064;-85
2023/05/01 09:19:45;;;;;;;8.38;3.67;;;16.00;99.90;;;;;;5097404;28;20032;-81
2023/05/01 09:22:11;;;;;;;5.40;3.03;;;16.00;99.90;;;;;;5097729;28;20586;-80
2023/05/01 09:24:36;;;;;;;4.78;2.50;;;16.10;99.90;;;;;;5062132;28;20068;-81
2023/05/01 09:27:02;;;;;;;7.18;3.20;;;16.20;99.90;;;;;;5071865;28;20043;-81
2023/05/01 09:29:46;;;;;;;6.13;3.05;;;16.30;99.90;;;;;;5097469;28;20040;-81
2023/05/01 09:32:18;;;;;;;4.20;2.65;;;16.20;99.90;;;;;;5096520;28;20123;-83
2023/05/01 09:34:43;;;;;;;7.07;2.83;;;16.30;99.90;;;;;;5095635;28;20043;-80
2023/05/01 09:37:26;;;;;;;8.20;2.90;;;16.40;99.90;;;;;;5094828;28;20032;-80
2023/05/01 09:40:02;;;;;;;6.18;3.05;;;16.60;99.90;;;;;;5108672;28;20032;-80
2023/05/01 09:42:28;;;;;;;4.85;2.53;;;16.90;99.90;;;;;;5094304;28;20043;-80
2023/05/01 09:44:54;;;;;;;5.40;2.65;;;17.10;99.90;;;;;;5095749;28;20046;-80
2023/05/01 09:47:23;;;;;;;4.95;2.67;;;17.10;99.90;;;;;;5094399;28;20502;-81
2023/05/01 09:49:49;;;;;;;8.27;3.13;;;17.00;99.90;;;;;;5093588;28;20114;-80
2023/05/01 09:52:15;;;;;;;5.40;3.00;;;17.10;99.90;;;;;;5094559;28;20056;-80
2023/05/01 09:54:41;;;;;;;6.13;3.13;;;17.00;99.90;;;;;;5094077;28;20040;-80
2023/05/01 09:57:07;;;;;;;6.32;3.25;;;17.10;99.90;;;;;;5107568;28;20084;-79
2023/05/01 09:59:33;;;;;;;5.45;2.80;;;17.20;99.90;;;;;;5093787;28;20043;-80
2023/05/01 10:01:59;;;;;;;4.28;2.08;;;17.40;99.90;;;;;;5094085;28;20040;-84
2023/05/01 10:04:30;;;;;;;3.20;2.08;;;17.40;99.90;;;;;;5094714;28;20043;-79
2023/05/01 10:06:56;;;;;;;10.05;1.90;;;17.30;99.90;;;;;;5094502;28;20058;-80
2023/05/01 10:09:28;;;;;;;3.53;1.92;;;17.10;99.60;;;;;;5064972;28;20602;-80
2023/05/01 10:11:56;;;;;;;5.80;1.80;;;17.20;99.90;;;;;;5083728;28;20446;-80
2023/05/01 10:14:22;;;;;;;4.30;1.95;;;17.20;99.90;;;;;;5089244;28;20496;-81
2023/05/01 10:16:51;;;;;;;4.82;2.50;;;17.30;99.90;;;;;;5084887;28;20044;-80
2023/05/01 10:19:17;;;;;;;4.55;1.90;;;17.20;99.90;;;;;;5082430;28;20055;-80
2023/05/01 10:21:43;;;;;;;5.45;1.92;;;17.20;99.90;;;;;;5095998;28;20028;-81
2023/05/01 10:24:09;;;;;;;3.83;1.80;;;17.40;99.90;;;;;;5095555;28;20046;-80
2023/05/01 10:26:36;;;;;;;5.10;1.60;;;17.50;99.90;;;;;;5095566;28;20115;-80
2023/05/01 10:29:02;;;;;;;3.17;1.73;;;17.70;99.90;;;;;;5108663;28;20043;-79
2023/05/01 10:31:31;;;;;;;3.28;1.77;;;17.70;99.90;;;;;;5080295;28;20085;-81
2023/05/01 10:33:57;;;;;;;4.38;1.80;;;17.80;99.90;;;;;;5090391;28;20039;-83
2023/05/01 10:36:23;;;;;;;3.50;1.77;;;18.00;99.90;;;;;;5080946;28;20032;-81
2023/05/01 10:38:49;;;;;;;4.63;1.90;;;17.90;99.90;;;;;;5094730;28;20388;-82
2023/05/01 10:41:18;;;;;;;2.85;1.33;;;17.90;99.70;;;;;;5094185;28;20036;-80
2023/05/01 10:43:43;;;;;;;4.55;2.03;;;17.80;99.10;;;;;;5096018;28;20096;-80
2023/05/01 10:46:09;;;;;;;3.97;2.00;;;17.70;99.80;;;;;;5064352;28;20127;-81
2023/05/01 10:48:38;;;;;;;4.13;2.10;;;17.80;99.90;;;;;;5094441;28;20442;-81
2023/05/01 10:51:08;;;;;;;5.30;1.80;;;17.70;99.60;;;;;;5095690;28;20415;-81
2023/05/01 10:53:33;;;;;;;5.03;2.10;;;17.90;99.90;;;;;;5094170;28;20054;-80
2023/05/01 10:55:59;;;;;;;3.95;1.85;;;18.00;99.90;;;;;;5101399;28;20040;-82
2023/05/01 10:58:39;;;;;;;4.32;2.17;;;18.00;99.90;;;;;;5101184;28;20051;-80
2023/05/01 11:01:27;;;;;;;7.10;2.40;;;18.00;99.30;;;;;;5093403;28;20055;-81
2023/05/01 11:03:53;;;;;;;3.58;2.00;;;18.00;97.80;;;;;;5064345;28;20119;-80
2023/05/01 11:06:19;;;;;;;4.85;2.13;;;18.30;99.90;;;;;;5094087;28;20043;-80
2023/05/01 11:08:46;;;;;;;6.10;2.13;;;18.30;99.10;;;;;;5093939;28;20122;-80
2023/05/01 11:11:20;;;;;;;4.95;2.03;;;18.30;99.40;;;;;;5058043;28;20109;-82
2023/05/01 11:14:03;;;;;;;5.25;2.70;;;18.30;99.50;;;;;;5086650;28;20067;-80
2023/05/01 11:16:38;;;;;;;4.57;2.80;;;18.50;99.90;;;;;;5077915;28;20410;-81
2023/05/01 11:19:24;;;;;;;4.00;2.30;;;18.50;99.70;;;;;;5093504;28;20044;-81
2023/05/01 11:21:50;;;;;;;4.80;2.47;;;18.60;99.60;;;;;;5101430;28;20087;-80
2023/05/01 11:24:18;;;;;;;5.22;2.60;;;18.50;99.70;;;;;;5099199;28;20061;-81
2023/05/01 11:26:44;;;;;;;4.80;2.35;;;18.60;99.90;;;;;;5103333;28;20085;-80
2023/05/01 11:29:10;;;;;;;4.20;2.15;;;18.60;99.20;;;;;;5072536;28;20041;-83
2023/05/01 11:31:36;;;;;;;4.30;2.20;;;18.90;99.40;;;;;;5101984;28;20064;-80
2023/05/01 11:34:02;;;;;;;4.47;2.42;;;19.20;99.50;;;;;;5100469;28;20048;-80
2023/05/01 11:36:45;;;;;;;5.25;2.55;;;19.20;98.10;;;;;;5097943;28;20388;-78
2023/05/01 11:39:14;;;;;;;5.50;2.30;;;19.50;98.90;;;;;;5101170;28;20036;-80
2023/05/01 11:41:39;;;;;;;4.20;2.50;;;19.50;98.90;;;;;;5066938;28;20047;-80
2023/05/01 11:44:05;;;;;;;4.63;2.10;;;19.60;98.90;;;;;;5094384;28;20040;-80
2023/05/01 11:46:32;;;;;;;6.65;1.65;;;19.70;98.60;;;;;;5099465;28;20043;-80
2023/05/01 11:49:00;;;;;;;3.13;1.50;;;19.80;97.90;;;;;;5073459;28;20196;-80
2023/05/01 11:51:26;;;;;;;5.35;1.60;;;19.70;97.40;;;;;;5096362;28;20088;-80
2023/05/01 11:54:06;;;;;;;4.00;1.50;;;19.40;97.10;;;;;;5101122;28;20043;-81
2023/05/01 11:56:33;;;;;;;3.65;1.33;;;19.30;96.90;;;;;;5113825;28;20050;-83
2023/05/01 11:59:12;;;;;;;1.98;1.40;;;19.30;97.40;;;;;;5104136;28;20119;-81
2023/05/01 12:01:39;;;;;;;3.70;2.05;;;19.30;97.00;;;;;;5102486;28;20081;-78
2023/05/01 12:04:09;;;;;;;3.38;1.73;;;19.10;97.30;;;;;;5066751;28;20041;-81
2023/05/01 12:06:44;;;;;;;3.30;1.60;;;19.10;97.60;;;;;;5090851;28;20040;-81
2023/05/01 12:09:21;;;;;;;3.65;1.65;;;19.00;97.20;;;;;;5098506;28;20169;-79
2023/05/01 12:11:51;;;;;;;3.65;1.58;;;19.10;97.60;;;;;;5100705;28;20061;-81
2023/05/01 12:14:17;;;;;;;4.78;1.75;;;19.10;97.70;;;;;;5097936;28;20106;-82
2023/05/01 12:16:43;;;;;;;6.47;1.40;;;19.20;98.20;;;;;;5092527;28;20044;-79
2023/05/01 12:19:12;;;;;;;2.38;1.30;;;19.30;98.60;;;;;;5090182;28;20036;-79
2023/05/01 12:21:38;;;;;;;4.05;1.70;;;19.30;98.20;;;;;;5090916;28;20032;-79
2023/05/01 12:24:08;;;;;;;5.30;1.70;;;19.20;98.10;;;;;;5091795;28;20036;-80
2023/05/01 12:26:34;;;;;;;4.70;2.05;;;19.20;98.30;;;;;;5091051;28;20039;-78
2023/05/01 12:29:02;;;;;;;4.18;2.00;;;18.90;98.20;;;;;;5089953;28;20043;-79
2023/05/01 12:31:29;;;;;;;4.78;2.40;;;18.60;98.30;;;;;;5090407;28;20036;-78
2023/05/01 12:34:04;;;;;;;7.95;2.30;;;18.40;98.60;;;;;;5073217;28;20043;-79
2023/05/01 12:36:34;;;;;;;5.25;1.90;;;18.30;99.00;;;;;;5089730;28;20055;-79
2023/05/01 12:39:05;;;;;;;3.45;1.80;;;18.30;99.10;;;;;;5107173;28;20036;-79
2023/05/01 12:41:44;;;;;;;5.70;1.95;;;18.40;99.30;;;;;;5090557;28;20039;-79
2023/05/01 12:44:18;;;;;;;4.03;2.10;;;18.70;99.90;;;;;;5090300;28;20040;-78
2023/05/01 12:46:46;;;;;;;4.07;1.80;;;18.80;99.80;;;;;;5106830;28;20100;-80
2023/05/01 12:49:17;;;;;;;4.18;1.73;;;18.90;99.90;;;;;;5090088;28;20126;-79
2023/05/01 12:51:47;;;;;;;4.28;1.60;;;18.90;99.10;;;;;;5089631;28;20040;-79
2023/05/01 12:54:19;;;;;;;5.97;1.88;;;18.90;98.10;;;;;;5089611;28;20048;-79